Graz, Austria

2:27 AM CEST on August 21, 2014 (GMT +0200)
ISTEIERM17 | Change Station
CLOSE
Current Station
Personal Weather Station
Location: Graz-Pirka, STEIERMARK
Elevation: 1152 ft
Nearby Weather Stations

Elev 1152 ft 47.00 °N, 15.39 °E | Updated 1 minute ago

Rain
Rain
58.3 °F
Feels Like 58.3 °F
N
0.5
Wind Variable Wind from SW
Gusts 0.0 mph

Today
High -- | Low -- °F
--% Chance of Precip.
Yesterday
High -- | Low -- °F
Precip. -- in
6:02 AM 7:59 PM
Waning Crescent, 18% visible
Pressure 29.98 in
Visibility 6.2 miles
Clouds Few 2200 ft
Mostly Cloudy 2600 ft
Dew Point 55 °F
Humidity 90%
Rainfall 0.03 in
Snow Depth Not available.
UV 0.0 out of 12
Pollen Not available.
Air Quality Not available.
Flu Activity Not available.
METAR LOWG 210020Z AUTO VRB02KT 9999 RA FEW022 BKN026 15/13 Q1015

More Conditions Fewer Conditions

Pressure 29.98 in
Visibility 6.2 miles
Clouds Few 2200 ft
Mostly Cloudy 2600 ft
Dew Point 55 °F
Humidity 90%
Rainfall 0.03 in
Snow Depth Not available.
UV 0.0 out of 12
Pollen Not available.
Air Quality Not available.
Flu Activity Not available.
METAR LOWG 210020Z AUTO VRB02KT 9999 RA FEW022 BKN026 15/13 Q1015

More Conditions Fewer Conditions

10-Day Weather Forecast

Almanac

Astronomy

Aug. 21, 2014 Rise Set
Actual Time 6:02 AM CEST 7:59 PM CEST
Civil Twilight 5:30 AM CEST 8:31 PM CEST
Nautical Twilight 4:49 AM CEST 9:11 PM CEST
Astronomical Twilight 4:05 AM CEST 9:55 PM CEST
Moon 2:11 AM CEST 5:21 PM CEST
Length of Visible Light 15h 01m
Length of Day
13h 56m
Tomorrow will be 3m 6s shorter.
Waning Crescent, 18% of the Moon is Illuminated
Aug 20
Waning Crescent
Aug 25
New
Sep 2
First Quarter
Sep 8
Full
Sep 15
Last Quarter

Yesterday's Extremes

Country Highs Country Lows

Community

WunderPhotos

Upload Photos

1,745,807 photos uploaded!

WunderBlogs® & News

Nearby

Snow Depth

Not available.

Earthquake Activity

City Distance Mag. Time & Date
No recent earthquake activity has been reported nearby.
Minimum magnitude displayed is 2.5.

Coastal Water Temperatures

Place Temperature
No Stations Reporting

Nearby Weather Stations